createdAt,value
2018-06-29T00:00:00.178Z,19.3
2018-06-29T00:05:00.283Z,19.2
2018-06-29T00:10:00.368Z,19.2
2018-06-29T00:15:00.618Z,19.2
2018-06-29T00:20:00.895Z,19.1
2018-06-29T00:25:00.444Z,19
2018-06-29T00:30:00.384Z,19
2018-06-29T00:35:00.453Z,18.9
2018-06-29T00:40:00.528Z,18.9
2018-06-29T00:45:00.090Z,18.9
2018-06-29T00:50:00.319Z,18.9
2018-06-29T00:55:00.337Z,18.6
2018-06-29T01:00:00.191Z,18.6
2018-06-29T01:05:00.401Z,18.6
2018-06-29T01:10:00.595Z,18.6
2018-06-29T01:15:01.683Z,18.6
2018-06-29T01:20:00.278Z,18.4
2018-06-29T01:25:00.417Z,18.3
2018-06-29T01:30:14.222Z,18.2
2018-06-29T01:35:00.154Z,18.2
2018-06-29T01:40:00.479Z,18
2018-06-29T01:45:00.147Z,17.9
2018-06-29T01:50:00.431Z,17.9
2018-06-29T01:55:00.375Z,17.7
2018-06-29T02:00:00.520Z,17.7
2018-06-29T02:05:00.500Z,17.7
2018-06-29T02:10:00.614Z,17.6
2018-06-29T02:15:00.222Z,17.6
2018-06-29T02:20:00.028Z,17.5
2018-06-29T02:25:00.411Z,17.4
2018-06-29T02:29:59.999Z,17.4
2018-06-29T02:35:00.054Z,17.3
2018-06-29T02:40:00.129Z,17.3
2018-06-29T02:45:00.209Z,17.3
2018-06-29T02:50:00.080Z,17.3
2018-06-29T02:54:59.985Z,17.1
2018-06-29T03:00:00.259Z,17.1
2018-06-29T03:05:00.069Z,17
2018-06-29T03:09:59.920Z,17
2018-06-29T03:15:00.097Z,17
2018-06-29T03:20:00.012Z,16.9
2018-06-29T03:25:00.138Z,16.9
2018-06-29T03:29:59.860Z,16.9
2018-06-29T03:35:00.194Z,16.8
2018-06-29T03:39:59.923Z,16.8
2018-06-29T03:45:00.073Z,16.8
2018-06-29T03:50:00.031Z,16.8
2018-06-29T03:54:59.941Z,16.8
2018-06-29T03:59:59.836Z,16.7
2018-06-29T04:04:59.850Z,16.7
2018-06-29T04:10:00.290Z,16.7
2018-06-29T04:14:59.794Z,16.7
2018-06-29T04:19:59.847Z,16.7
2018-06-29T04:24:59.725Z,16.6
2018-06-29T04:29:59.800Z,16.7
2018-06-29T04:34:59.817Z,16.7
2018-06-29T04:39:59.757Z,16.7
2018-06-29T04:44:59.865Z,16.7
2018-06-29T04:49:59.824Z,16.8
2018-06-29T04:55:00.048Z,16.8
2018-06-29T04:59:59.684Z,16.9
2018-06-29T05:04:59.749Z,16.9
2018-06-29T05:09:59.976Z,17
2018-06-29T05:14:59.644Z,17
2018-06-29T05:19:59.944Z,17.1
2018-06-29T05:24:59.586Z,17.1
2018-06-29T05:30:00.083Z,17.2
2018-06-29T05:34:59.821Z,17.3
2018-06-29T05:39:59.826Z,17.4
2018-06-29T05:44:59.958Z,17.4
2018-06-29T05:49:59.800Z,17.5
2018-06-29T05:54:59.612Z,17.5
2018-06-29T05:59:59.730Z,17.7
2018-06-29T06:04:59.742Z,17.7
2018-06-29T06:09:59.829Z,17.8
2018-06-29T06:14:59.735Z,18
2018-06-29T06:19:59.857Z,18
2018-06-29T06:24:59.672Z,18
2018-06-29T06:29:59.696Z,18.4
2018-06-29T06:34:59.662Z,18.5
2018-06-29T06:39:59.591Z,18.6
2018-06-29T06:44:59.558Z,18.9
2018-06-29T06:49:59.584Z,18.9
2018-06-29T06:54:59.748Z,19.2
2018-06-29T06:59:59.741Z,19.3
2018-06-29T07:04:59.741Z,19.3
2018-06-29T07:09:59.818Z,19.5
2018-06-29T07:14:59.785Z,19.6
2018-06-29T07:19:59.559Z,19.7
2018-06-29T07:24:59.604Z,19.7
2018-06-29T07:29:59.777Z,19.7
2018-06-29T07:34:59.777Z,19.7
2018-06-29T07:39:59.537Z,20.1
2018-06-29T07:44:59.693Z,20.2
2018-06-29T07:49:59.391Z,20.3
2018-06-29T07:54:59.521Z,20.4
2018-06-29T07:59:59.666Z,20.5
2018-06-29T08:04:59.752Z,20.6
2018-06-29T08:09:59.905Z,20.8
2018-06-29T08:14:59.504Z,20.8
2018-06-29T08:19:59.493Z,21
2018-06-29T08:24:59.601Z,21.2
2018-06-29T08:29:59.799Z,21.3
2018-06-29T08:34:59.325Z,21.4
2018-06-29T08:39:59.341Z,21.4
2018-06-29T08:44:59.477Z,21.5
2018-06-29T08:49:59.560Z,21.6
2018-06-29T08:54:59.566Z,21.8
2018-06-29T08:59:59.542Z,21.8
2018-06-29T09:04:59.426Z,21.9
2018-06-29T09:09:59.422Z,21.9
2018-06-29T09:14:59.425Z,22.1
2018-06-29T09:19:59.240Z,22.2
2018-06-29T09:24:59.643Z,22.3
2018-06-29T09:29:59.309Z,22.4
2018-06-29T09:34:59.436Z,22.6
2018-06-29T09:39:59.969Z,22.7
2018-06-29T09:44:59.527Z,22.8
2018-06-29T09:49:59.672Z,22.9
2018-06-29T09:54:59.246Z,23
2018-06-29T09:59:59.428Z,23.2
2018-06-29T10:04:59.336Z,23.4
2018-06-29T10:09:59.483Z,23.4
2018-06-29T10:15:51.926Z,23.6
2018-06-29T10:19:59.474Z,23.7
2018-06-29T10:24:59.375Z,23.8
2018-06-29T10:29:59.380Z,23.9
2018-06-29T10:34:59.970Z,24.1
2018-06-29T10:39:59.298Z,24.2
2018-06-29T10:44:59.132Z,24.3
2018-06-29T10:49:59.422Z,24.4
2018-06-29T10:54:59.653Z,24.5
2018-06-29T10:59:59.624Z,24.6
2018-06-29T11:04:59.485Z,24.7
2018-06-29T11:09:59.477Z,24.9
2018-06-29T11:14:59.379Z,24.9
2018-06-29T11:19:59.156Z,25.1
2018-06-29T11:24:59.368Z,25.1
2018-06-29T11:29:59.339Z,25.1
2018-06-29T11:34:59.241Z,25.2
2018-06-29T11:39:59.471Z,25.3
2018-06-29T11:44:59.205Z,25.4
2018-06-29T11:49:59.258Z,25.3
2018-06-29T11:54:59.304Z,25.5
2018-06-29T11:59:59.090Z,25.6
2018-06-29T12:04:59.219Z,25.7
2018-06-29T12:09:59.376Z,25.8
2018-06-29T12:14:59.337Z,25.9
2018-06-29T12:19:58.989Z,25.9
2018-06-29T12:24:59.155Z,25.8
2018-06-29T12:29:59.260Z,26
2018-06-29T12:34:59.030Z,25.9
2018-06-29T12:39:59.267Z,26.1
2018-06-29T12:44:59.166Z,26.3
2018-06-29T12:49:59.012Z,26.2
2018-06-29T12:54:59.267Z,26.4
2018-06-29T12:59:58.950Z,26.4
2018-06-29T13:04:58.965Z,26.4
2018-06-29T13:09:59.025Z,26.5
2018-06-29T13:14:59.149Z,26.6
2018-06-29T13:19:59.091Z,26.9
2018-06-29T13:24:59.092Z,26.9
2018-06-29T13:29:59.456Z,26.9
2018-06-29T13:34:59.206Z,26.9
2018-06-29T13:39:58.894Z,27
2018-06-29T13:44:59.105Z,27
2018-06-29T13:49:59.095Z,27.2
2018-06-29T13:54:58.994Z,27.3
2018-06-29T13:59:59.073Z,27.2
2018-06-29T14:04:58.915Z,27.3
2018-06-29T14:09:59.309Z,27.3
2018-06-29T14:14:58.938Z,27.3
2018-06-29T14:19:59.040Z,27.3
2018-06-29T14:24:58.998Z,27.3
2018-06-29T14:29:59.239Z,27.3
2018-06-29T14:34:58.836Z,27.2
2018-06-29T14:39:58.900Z,27.2
2018-06-29T14:44:58.876Z,27
2018-06-29T14:49:59.054Z,26.9
2018-06-29T14:54:59.095Z,27
2018-06-29T14:59:58.955Z,27.1
2018-06-29T15:04:59.108Z,26.8
2018-06-29T15:09:59.030Z,26.7
2018-06-29T15:14:58.963Z,26.6
2018-06-29T15:19:59.037Z,26.4
2018-06-29T15:24:59.050Z,26.2
2018-06-29T15:29:59.153Z,26.2
2018-06-29T15:34:58.860Z,26
2018-06-29T15:39:58.939Z,25.8
2018-06-29T15:44:58.850Z,25.6
2018-06-29T15:49:58.776Z,25.4
2018-06-29T15:54:59.036Z,25.3
2018-06-29T15:59:58.851Z,25.3
2018-06-29T16:04:58.862Z,25.1
2018-06-29T16:09:58.999Z,25.1
2018-06-29T16:14:58.933Z,24.9
2018-06-29T16:19:58.889Z,24.7
2018-06-29T16:24:58.772Z,24.4
2018-06-29T16:29:58.767Z,24.1
2018-06-29T16:34:59.050Z,24
2018-06-29T16:39:58.855Z,23.8
2018-06-29T16:44:58.897Z,23.7
2018-06-29T16:49:58.720Z,23.6
2018-06-29T16:54:58.731Z,23.1
2018-06-29T16:59:58.671Z,23.1
2018-06-29T17:04:58.890Z,23
2018-06-29T17:09:58.641Z,23.1
2018-06-29T17:14:58.597Z,23
2018-06-29T17:19:58.754Z,23
2018-06-29T17:24:58.998Z,22.7
2018-06-29T17:29:58.909Z,22.6
2018-06-29T17:34:58.759Z,22.6
2018-06-29T17:39:58.770Z,22.6
2018-06-29T17:44:58.849Z,22.5
2018-06-29T17:49:58.857Z,22.3
2018-06-29T17:54:58.790Z,22.3
2018-06-29T17:59:58.894Z,22
2018-06-29T18:04:58.682Z,21.8
2018-06-29T18:09:58.832Z,21.7
2018-06-29T18:14:58.581Z,21.7
2018-06-29T18:19:58.725Z,21.7
2018-06-29T18:24:58.720Z,21.4
2018-06-29T18:29:58.948Z,21.1
2018-06-29T18:34:58.466Z,21.1
2018-06-29T18:39:58.739Z,21
2018-06-29T18:44:58.737Z,20.9
2018-06-29T18:49:58.722Z,20.7
2018-06-29T18:54:58.758Z,20.7
2018-06-29T18:59:58.763Z,20.6
2018-06-29T19:04:58.509Z,20.5
2018-06-29T19:09:58.773Z,20.4
2018-06-29T19:14:58.632Z,20.4
2018-06-29T19:19:58.771Z,20.4
2018-06-29T19:24:58.500Z,20.2
2018-06-29T19:29:58.462Z,20.2
2018-06-29T19:34:58.426Z,20.1
2018-06-29T19:39:58.654Z,20
2018-06-29T19:44:58.671Z,19.9
2018-06-29T19:49:58.396Z,19.9
2018-06-29T19:54:58.525Z,19.8
2018-06-29T19:59:58.660Z,19.7
2018-06-29T20:04:58.493Z,19.5
2018-06-29T20:09:58.469Z,19.6
2018-06-29T20:14:58.572Z,19.4
2018-06-29T20:19:58.557Z,19.3
2018-06-29T20:24:58.285Z,19.3
2018-06-29T20:29:58.360Z,19.2
2018-06-29T20:34:58.485Z,19.2
2018-06-29T20:39:58.594Z,19.2
2018-06-29T20:44:58.402Z,18.9
2018-06-29T20:49:58.522Z,18.9
2018-06-29T20:54:58.541Z,18.8
2018-06-29T20:59:58.294Z,18.7
2018-06-29T21:04:58.496Z,18.6
2018-06-29T21:09:58.394Z,18.6
2018-06-29T21:14:58.541Z,18.6
2018-06-29T21:19:58.593Z,18.6
2018-06-29T21:24:58.682Z,18.4
2018-06-29T21:29:58.430Z,18.4
2018-06-29T21:34:58.515Z,18.4
2018-06-29T21:39:58.522Z,18.4
2018-06-29T21:44:58.554Z,18.3
2018-06-29T21:49:58.457Z,18.4
2018-06-29T21:54:58.421Z,18.4
2018-06-29T21:59:58.394Z,18.2
2018-06-29T22:04:58.621Z,18.2
2018-06-29T22:09:58.304Z,18.3
2018-06-29T22:14:58.389Z,18.2
2018-06-29T22:19:58.545Z,18.2
2018-06-29T22:24:58.658Z,18.1
2018-06-29T22:29:58.562Z,18.1
2018-06-29T22:34:58.320Z,18
2018-06-29T22:39:58.643Z,18
2018-06-29T22:44:58.460Z,18
2018-06-29T22:49:58.638Z,17.9
2018-06-29T22:54:58.371Z,17.9
2018-06-29T22:59:58.642Z,17.9
2018-06-29T23:04:58.184Z,17.9
2018-06-29T23:09:58.352Z,17.9
2018-06-29T23:14:58.486Z,17.8
2018-06-29T23:19:58.474Z,17.8
2018-06-29T23:24:58.412Z,17.8
2018-06-29T23:29:58.501Z,17.7
2018-06-29T23:34:58.540Z,17.7
2018-06-29T23:39:58.225Z,17.7
2018-06-29T23:44:58.797Z,17.7
2018-06-29T23:49:58.649Z,17.6
2018-06-29T23:54:58.282Z,17.5
2018-06-29T23:59:58.400Z,17.5
